createdAt,value
2016-11-23T00:00:08.296Z,953.78
2016-11-23T00:01:07.746Z,953.77
2016-11-23T00:02:08.736Z,953.73
2016-11-23T00:03:12.762Z,953.77
2016-11-23T00:04:07.563Z,953.81
2016-11-23T00:05:08.128Z,953.80
2016-11-23T00:06:08.671Z,953.85
2016-11-23T00:07:08.373Z,953.88
2016-11-23T00:08:08.219Z,953.94
2016-11-23T00:09:07.793Z,953.91
2016-11-23T00:10:07.459Z,953.91
2016-11-23T00:11:08.041Z,953.87
2016-11-23T00:12:07.791Z,953.87
2016-11-23T00:13:07.321Z,953.85
2016-11-23T00:14:07.814Z,953.80
2016-11-23T00:15:07.297Z,953.83
2016-11-23T00:16:07.875Z,953.85
2016-11-23T00:17:07.424Z,953.83
2016-11-23T00:18:07.864Z,953.83
2016-11-23T00:19:07.373Z,953.80
2016-11-23T00:20:07.856Z,953.83
2016-11-23T00:21:07.482Z,953.77
2016-11-23T00:22:08.338Z,953.78
2016-11-23T00:23:07.882Z,953.80
2016-11-23T00:24:07.393Z,953.82
2016-11-23T00:25:08.087Z,953.77
2016-11-23T00:26:07.646Z,953.84
2016-11-23T00:27:08.119Z,953.90
2016-11-23T00:28:07.832Z,953.88
2016-11-23T00:29:07.322Z,953.93
2016-11-23T00:30:07.826Z,953.92
2016-11-23T00:31:07.394Z,953.90
2016-11-23T00:32:08.140Z,953.92
2016-11-23T00:33:07.800Z,953.85
2016-11-23T00:34:07.557Z,953.84
2016-11-23T00:35:08.022Z,953.82
2016-11-23T00:36:07.547Z,953.85
2016-11-23T00:37:08.383Z,953.85
2016-11-23T00:38:07.889Z,953.89
2016-11-23T00:39:07.475Z,953.88
2016-11-23T00:40:08.041Z,953.85
2016-11-23T00:41:07.651Z,953.89
2016-11-23T00:42:08.372Z,953.90
2016-11-23T00:43:08.122Z,953.91
2016-11-23T00:44:07.800Z,953.92
2016-11-23T00:45:07.541Z,953.86
2016-11-23T00:46:08.190Z,953.84
2016-11-23T00:47:08.170Z,953.84
2016-11-23T00:48:07.695Z,953.86
2016-11-23T00:49:08.175Z,953.90
2016-11-23T00:50:07.657Z,953.91
2016-11-23T00:51:08.411Z,953.87
2016-11-23T00:52:08.438Z,953.93
2016-11-23T00:53:07.377Z,953.91
2016-11-23T00:54:07.877Z,953.90
2016-11-23T00:55:07.362Z,953.92
2016-11-23T00:56:08.282Z,953.92
2016-11-23T00:57:07.820Z,953.93
2016-11-23T00:58:07.461Z,953.91
2016-11-23T00:59:08.097Z,953.93
2016-11-23T01:00:07.960Z,953.96
2016-11-23T01:01:07.400Z,953.93
2016-11-23T01:02:07.883Z,953.96
2016-11-23T01:03:07.428Z,953.95
2016-11-23T01:04:08.323Z,953.98
2016-11-23T01:05:07.877Z,954.00
2016-11-23T01:06:07.389Z,954.04
2016-11-23T01:07:07.931Z,954.02
2016-11-23T01:08:07.475Z,954.03
2016-11-23T01:09:08.181Z,954.07
2016-11-23T01:10:07.909Z,954.08
2016-11-23T01:11:07.395Z,954.06
2016-11-23T01:12:07.899Z,954.10
2016-11-23T01:13:07.475Z,954.06
2016-11-23T01:14:08.002Z,954.07
2016-11-23T01:15:07.514Z,954.08
2016-11-23T01:16:08.012Z,954.12
2016-11-23T01:17:07.760Z,954.10
2016-11-23T01:18:07.454Z,954.13
2016-11-23T01:19:07.960Z,954.13
2016-11-23T01:20:07.460Z,954.12
2016-11-23T01:21:07.977Z,954.14
2016-11-23T01:22:07.552Z,954.19
2016-11-23T01:23:08.092Z,954.17
2016-11-23T01:24:07.581Z,954.17
2016-11-23T01:25:08.107Z,954.18
2016-11-23T01:26:07.584Z,954.15
2016-11-23T01:27:08.230Z,954.17
2016-11-23T01:28:08.000Z,954.10
2016-11-23T01:29:07.571Z,954.12
2016-11-23T01:30:08.374Z,954.12
2016-11-23T01:31:07.915Z,954.18
2016-11-23T01:32:08.362Z,954.23
2016-11-23T01:33:07.855Z,954.15
2016-11-23T01:34:08.123Z,954.16
2016-11-23T01:35:07.981Z,954.15
2016-11-23T01:36:07.490Z,954.12
2016-11-23T01:37:08.117Z,954.13
2016-11-23T01:38:07.675Z,954.18
2016-11-23T01:39:08.212Z,954.16
2016-11-23T01:40:07.698Z,954.19
2016-11-23T01:41:08.263Z,954.19
2016-11-23T01:42:07.919Z,954.21
2016-11-23T01:43:07.544Z,954.19
2016-11-23T01:44:08.237Z,954.21
2016-11-23T01:45:07.709Z,954.23
2016-11-23T01:46:08.152Z,954.22
2016-11-23T01:47:08.108Z,954.23
2016-11-23T01:48:08.801Z,954.24
2016-11-23T01:49:08.786Z,954.19
2016-11-23T01:50:07.291Z,954.23
2016-11-23T01:51:07.786Z,954.23
2016-11-23T01:52:07.457Z,954.24
2016-11-23T01:53:08.141Z,954.24
2016-11-23T01:54:07.727Z,954.25
2016-11-23T01:55:08.318Z,954.23
2016-11-23T01:56:07.805Z,954.19
2016-11-23T01:57:07.282Z,954.17
2016-11-23T01:58:07.957Z,954.22
2016-11-23T01:59:07.418Z,954.19
2016-11-23T02:00:08.026Z,954.18
2016-11-23T02:01:07.688Z,954.16
2016-11-23T02:02:08.279Z,954.19
2016-11-23T02:03:08.122Z,954.16
2016-11-23T02:04:07.849Z,954.19
2016-11-23T02:05:07.370Z,954.18
2016-11-23T02:06:07.863Z,954.17
2016-11-23T02:07:07.405Z,954.11
2016-11-23T02:08:08.024Z,954.14
2016-11-23T02:09:07.479Z,954.08
2016-11-23T02:10:08.127Z,954.08
2016-11-23T02:11:07.620Z,954.02
2016-11-23T02:12:08.206Z,954.03
2016-11-23T02:13:08.050Z,954.05
2016-11-23T02:14:07.510Z,954.06
2016-11-23T02:15:08.066Z,954.09
2016-11-23T02:16:07.523Z,954.06
2016-11-23T02:17:08.129Z,954.08
2016-11-23T02:18:08.192Z,954.09
2016-11-23T02:19:07.415Z,954.12
2016-11-23T02:20:07.887Z,954.09
2016-11-23T02:21:07.402Z,954.11
2016-11-23T02:22:08.190Z,954.11
2016-11-23T02:23:07.817Z,954.14
2016-11-23T02:24:07.398Z,954.11
2016-11-23T02:25:08.134Z,954.17
2016-11-23T02:26:07.605Z,954.17
2016-11-23T02:27:08.102Z,954.22
2016-11-23T02:28:07.787Z,954.21
2016-11-23T02:29:07.410Z,954.23
2016-11-23T02:30:07.936Z,954.26
2016-11-23T02:31:07.916Z,954.26
2016-11-23T02:32:07.610Z,954.29
2016-11-23T02:33:08.209Z,954.29
2016-11-23T02:34:07.779Z,954.30
2016-11-23T02:35:07.601Z,954.28
2016-11-23T02:36:08.160Z,954.35
2016-11-23T02:37:07.782Z,954.34
2016-11-23T02:38:07.510Z,954.35
2016-11-23T02:39:07.961Z,954.35
2016-11-23T02:40:07.831Z,954.38
2016-11-23T02:41:07.310Z,954.40
2016-11-23T02:42:07.920Z,954.43
2016-11-23T02:43:07.665Z,954.42
2016-11-23T02:44:08.317Z,954.39
2016-11-23T02:45:07.828Z,954.45
2016-11-23T02:46:07.333Z,954.41
2016-11-23T02:47:07.867Z,954.39
2016-11-23T02:48:07.495Z,954.43
2016-11-23T02:49:08.279Z,954.45
2016-11-23T02:50:07.988Z,954.45
2016-11-23T02:51:07.578Z,954.44
2016-11-23T02:52:08.466Z,954.45
2016-11-23T02:53:08.441Z,954.46
2016-11-23T02:54:07.870Z,954.45
2016-11-23T02:55:07.455Z,954.50
2016-11-23T02:56:08.115Z,954.50
2016-11-23T02:57:07.595Z,954.54
2016-11-23T02:58:08.366Z,954.51
2016-11-23T02:59:07.860Z,954.57
2016-11-23T03:00:07.429Z,954.54
2016-11-23T03:01:07.938Z,954.56
2016-11-23T03:02:07.426Z,954.58
2016-11-23T03:03:08.251Z,954.57
2016-11-23T03:04:07.999Z,954.59
2016-11-23T03:05:07.479Z,954.58
2016-11-23T03:06:08.081Z,954.65
2016-11-23T03:07:07.907Z,954.64
2016-11-23T03:08:07.697Z,954.68
2016-11-23T03:09:08.805Z,954.69
2016-11-23T03:10:07.487Z,954.75
2016-11-23T03:11:08.040Z,954.74
2016-11-23T03:12:07.681Z,954.71
2016-11-23T03:13:08.629Z,954.71
2016-11-23T03:14:08.161Z,954.62
2016-11-23T03:15:07.634Z,954.67
2016-11-23T03:16:08.311Z,954.61
2016-11-23T03:17:08.040Z,954.63
2016-11-23T03:18:07.693Z,954.62
2016-11-23T03:19:08.313Z,954.64
2016-11-23T03:20:07.859Z,954.61
2016-11-23T03:21:07.450Z,954.59
2016-11-23T03:22:08.013Z,954.61
2016-11-23T03:23:07.575Z,954.63
2016-11-23T03:24:08.342Z,954.60
2016-11-23T03:25:08.037Z,954.71
2016-11-23T03:26:07.799Z,954.68
2016-11-23T03:27:07.298Z,954.76
2016-11-23T03:28:07.554Z,954.68
2016-11-23T03:29:08.237Z,954.65
2016-11-23T03:30:07.729Z,954.68
2016-11-23T03:31:08.292Z,954.65
2016-11-23T03:32:08.043Z,954.62
2016-11-23T03:33:07.626Z,954.64
2016-11-23T03:34:08.202Z,954.62
2016-11-23T03:35:07.958Z,954.66
2016-11-23T03:36:07.479Z,954.66
2016-11-23T03:37:07.465Z,954.68
2016-11-23T03:38:08.260Z,954.66
2016-11-23T03:39:07.691Z,954.67
2016-11-23T03:40:07.835Z,954.72
2016-11-23T03:41:07.405Z,954.72
2016-11-23T03:42:07.909Z,954.76
2016-11-23T03:43:07.394Z,954.76
2016-11-23T03:44:07.974Z,954.77
2016-11-23T03:45:07.559Z,954.78
2016-11-23T03:46:08.051Z,954.75
2016-11-23T03:47:07.594Z,954.77
2016-11-23T03:48:08.452Z,954.77
2016-11-23T03:49:07.890Z,954.71
2016-11-23T03:50:07.603Z,954.74
2016-11-23T03:51:07.657Z,954.70
2016-11-23T03:52:08.223Z,954.70
2016-11-23T03:53:07.804Z,954.71
2016-11-23T03:54:07.300Z,954.68
2016-11-23T03:55:07.822Z,954.66
2016-11-23T03:56:07.467Z,954.66
2016-11-23T03:57:08.217Z,954.67
2016-11-23T03:58:08.100Z,954.72
2016-11-23T03:59:07.792Z,954.72
2016-11-23T04:00:07.700Z,954.72
2016-11-23T04:01:08.276Z,954.76
2016-11-23T04:02:07.737Z,954.68
2016-11-23T04:03:07.481Z,954.72
2016-11-23T04:04:07.955Z,954.72
2016-11-23T04:05:07.464Z,954.72
2016-11-23T04:06:07.948Z,954.72
2016-11-23T04:07:07.791Z,954.65
2016-11-23T04:08:07.818Z,954.62
2016-11-23T04:09:07.414Z,954.59
2016-11-23T04:10:07.939Z,954.60
2016-11-23T04:11:07.387Z,954.58
2016-11-23T04:12:07.911Z,954.61
2016-11-23T04:13:07.477Z,954.66
2016-11-23T04:14:07.988Z,954.65
2016-11-23T04:15:07.547Z,954.64
2016-11-23T04:16:08.039Z,954.63
2016-11-23T04:17:07.638Z,954.68
2016-11-23T04:18:08.163Z,954.67
2016-11-23T04:19:07.648Z,954.68
2016-11-23T04:20:08.250Z,954.70
2016-11-23T04:21:07.765Z,954.68
2016-11-23T04:22:07.472Z,954.64
2016-11-23T04:23:08.284Z,954.65
2016-11-23T04:24:08.020Z,954.63
2016-11-23T04:25:07.468Z,954.68
2016-11-23T04:26:08.009Z,954.70
2016-11-23T04:27:07.680Z,954.73
2016-11-23T04:28:08.398Z,954.73
2016-11-23T04:29:07.955Z,954.72
2016-11-23T04:30:07.497Z,954.76
2016-11-23T04:31:08.079Z,954.77
2016-11-23T04:32:07.626Z,954.80
2016-11-23T04:33:08.148Z,954.81
2016-11-23T04:34:07.676Z,954.80
2016-11-23T04:35:07.816Z,954.82
2016-11-23T04:36:07.376Z,954.82
2016-11-23T04:37:07.991Z,954.82
2016-11-23T04:38:07.478Z,954.79
2016-11-23T04:39:08.291Z,954.78
2016-11-23T04:40:07.758Z,954.81
2016-11-23T04:41:07.326Z,954.77
2016-11-23T04:42:07.790Z,954.77
2016-11-23T04:43:07.207Z,954.75
2016-11-23T04:44:07.749Z,954.74
2016-11-23T04:45:08.425Z,954.79
2016-11-23T04:46:07.962Z,954.76
2016-11-23T04:47:07.503Z,954.71
2016-11-23T04:48:07.770Z,954.72
2016-11-23T04:49:07.956Z,954.78
2016-11-23T04:50:07.437Z,954.82
2016-11-23T04:51:08.115Z,954.80
2016-11-23T04:52:07.668Z,954.85
2016-11-23T04:53:08.169Z,954.82
2016-11-23T04:54:07.692Z,954.85
2016-11-23T04:55:08.588Z,954.83
2016-11-23T04:56:08.582Z,954.82
2016-11-23T04:57:08.191Z,954.86
2016-11-23T04:58:08.031Z,954.79
2016-11-23T04:59:07.675Z,954.76
2016-11-23T05:00:07.831Z,954.83
2016-11-23T05:01:07.332Z,954.80
2016-11-23T05:02:08.153Z,954.85
2016-11-23T05:03:07.755Z,954.86
2016-11-23T05:04:08.257Z,954.85
2016-11-23T05:05:07.857Z,954.88
2016-11-23T05:06:07.489Z,954.93
2016-11-23T05:07:08.024Z,954.95
2016-11-23T05:08:07.564Z,954.93
2016-11-23T05:09:08.104Z,954.90
2016-11-23T05:10:07.618Z,954.91
2016-11-23T05:11:08.103Z,954.90
2016-11-23T05:12:07.834Z,954.89
2016-11-23T05:13:07.416Z,954.87
2016-11-23T05:14:07.959Z,954.88
2016-11-23T05:15:07.715Z,954.90
2016-11-23T05:16:08.638Z,954.92
2016-11-23T05:17:08.405Z,954.92
2016-11-23T05:18:08.221Z,954.94
2016-11-23T05:19:08.114Z,955.01
2016-11-23T05:20:07.680Z,954.97
2016-11-23T05:21:08.225Z,954.99
2016-11-23T05:22:07.958Z,954.95
2016-11-23T05:23:07.590Z,955.00
2016-11-23T05:24:08.165Z,954.99
2016-11-23T05:25:10.380Z,954.98
2016-11-23T05:26:08.207Z,954.97
2016-11-23T05:27:07.696Z,954.99
2016-11-23T05:28:08.460Z,954.98
2016-11-23T05:29:07.975Z,955.01
2016-11-23T05:30:07.661Z,955.01
2016-11-23T05:31:08.141Z,955.06
2016-11-23T05:32:07.615Z,955.01
2016-11-23T05:33:08.182Z,954.99
2016-11-23T05:34:08.435Z,955.05
2016-11-23T05:35:07.991Z,955.06
2016-11-23T05:36:07.804Z,955.10
2016-11-23T05:37:07.573Z,955.11
2016-11-23T05:38:08.047Z,955.07
2016-11-23T05:39:07.681Z,955.08
2016-11-23T05:40:08.197Z,955.06
2016-11-23T05:41:07.772Z,955.08
2016-11-23T05:42:07.281Z,955.09
2016-11-23T05:43:07.815Z,955.10
2016-11-23T05:44:07.642Z,955.14
2016-11-23T05:45:08.532Z,955.10
2016-11-23T05:46:07.993Z,955.14
2016-11-23T05:47:07.953Z,955.16
2016-11-23T05:48:07.429Z,955.14
2016-11-23T05:49:07.994Z,955.15
2016-11-23T05:50:07.837Z,955.21
2016-11-23T05:51:07.395Z,955.16
2016-11-23T05:52:08.573Z,955.18
2016-11-23T05:53:08.095Z,955.19
2016-11-23T05:54:07.905Z,955.17
2016-11-23T05:55:07.492Z,955.16
2016-11-23T05:56:08.255Z,955.18
2016-11-23T05:57:08.087Z,955.18
2016-11-23T05:58:07.772Z,955.21
2016-11-23T05:59:07.348Z,955.18
2016-11-23T06:00:08.051Z,955.22
2016-11-23T06:01:07.499Z,955.22
2016-11-23T06:02:07.535Z,955.18
2016-11-23T06:03:08.061Z,955.19
2016-11-23T06:04:07.854Z,955.23
2016-11-23T06:05:07.325Z,955.21
2016-11-23T06:06:08.101Z,955.18
2016-11-23T06:07:07.746Z,955.21
2016-11-23T06:08:08.305Z,955.24
2016-11-23T06:09:07.541Z,955.18
2016-11-23T06:10:08.031Z,955.22
2016-11-23T06:11:07.625Z,955.17
2016-11-23T06:12:08.104Z,955.16
2016-11-23T06:13:07.607Z,955.15
2016-11-23T06:14:08.228Z,955.15
2016-11-23T06:15:07.745Z,955.20
2016-11-23T06:16:08.302Z,955.23
2016-11-23T06:17:08.335Z,955.21
2016-11-23T06:18:07.857Z,955.24
2016-11-23T06:19:07.443Z,955.29
2016-11-23T06:20:08.118Z,955.29
2016-11-23T06:21:08.139Z,955.32
2016-11-23T06:22:08.285Z,955.29
2016-11-23T06:23:07.778Z,955.27
2016-11-23T06:24:07.410Z,955.27
2016-11-23T06:25:07.889Z,955.29
2016-11-23T06:26:07.482Z,955.33
2016-11-23T06:27:08.034Z,955.34
2016-11-23T06:28:08.511Z,955.30
2016-11-23T06:29:08.073Z,955.33
2016-11-23T06:30:07.945Z,955.32
2016-11-23T06:31:08.040Z,955.33
2016-11-23T06:32:07.880Z,955.34
2016-11-23T06:33:07.449Z,955.39
2016-11-23T06:34:08.022Z,955.40
2016-11-23T06:35:07.554Z,955.37
2016-11-23T06:36:08.053Z,955.37
2016-11-23T06:37:07.599Z,955.37
2016-11-23T06:38:08.080Z,955.36
2016-11-23T06:39:08.312Z,955.34
2016-11-23T06:40:07.461Z,955.36
2016-11-23T06:41:08.013Z,955.36
2016-11-23T06:42:07.708Z,955.35
2016-11-23T06:43:08.404Z,955.37
2016-11-23T06:44:07.990Z,955.35
2016-11-23T06:45:07.340Z,955.41
2016-11-23T06:46:07.919Z,955.40
2016-11-23T06:47:07.504Z,955.46
2016-11-23T06:48:08.063Z,955.41
2016-11-23T06:49:07.934Z,955.42
2016-11-23T06:50:08.058Z,955.38
2016-11-23T06:51:07.557Z,955.41
2016-11-23T06:52:08.127Z,955.41
2016-11-23T06:53:07.975Z,955.39
2016-11-23T06:54:07.512Z,955.41
2016-11-23T06:55:08.332Z,955.39
2016-11-23T06:56:07.787Z,955.44
2016-11-23T06:57:07.287Z,955.46
2016-11-23T06:58:07.975Z,955.50
2016-11-23T06:59:07.573Z,955.44
2016-11-23T07:00:08.115Z,955.52
2016-11-23T07:01:07.775Z,955.53
2016-11-23T07:02:07.429Z,955.53
2016-11-23T07:03:08.121Z,955.52
2016-11-23T07:04:07.674Z,955.52
2016-11-23T07:05:08.546Z,955.49
2016-11-23T07:06:08.399Z,955.52
2016-11-23T07:07:07.965Z,955.53
2016-11-23T07:08:07.551Z,955.55
2016-11-23T07:09:08.343Z,955.54
2016-11-23T07:10:07.949Z,955.56
2016-11-23T07:11:07.592Z,955.60
2016-11-23T07:12:07.289Z,955.57
2016-11-23T07:13:07.869Z,955.57
2016-11-23T07:14:07.455Z,955.56
2016-11-23T07:15:08.349Z,955.59
2016-11-23T07:16:07.788Z,955.63
2016-11-23T07:17:07.410Z,955.59
2016-11-23T07:18:07.994Z,955.61
2016-11-23T07:19:07.548Z,955.61
2016-11-23T07:20:08.143Z,955.59
2016-11-23T07:21:07.763Z,955.58
2016-11-23T07:22:08.303Z,955.63
2016-11-23T07:23:07.911Z,955.66
2016-11-23T07:24:07.504Z,955.69
2016-11-23T07:25:07.971Z,955.67
2016-11-23T07:26:07.607Z,955.67
2016-11-23T07:27:08.231Z,955.66
2016-11-23T07:28:07.854Z,955.65
2016-11-23T07:29:08.186Z,955.68
2016-11-23T07:30:07.779Z,955.62
2016-11-23T07:31:07.335Z,955.66
2016-11-23T07:32:07.833Z,955.65
2016-11-23T07:33:07.340Z,955.67
2016-11-23T07:34:07.861Z,955.72
2016-11-23T07:35:07.665Z,955.73
2016-11-23T07:36:08.416Z,955.72
2016-11-23T07:37:07.905Z,955.75
2016-11-23T07:38:07.544Z,955.74
2016-11-23T07:39:08.093Z,955.75
2016-11-23T07:40:07.583Z,955.74
2016-11-23T07:41:08.142Z,955.74
2016-11-23T07:42:07.600Z,955.78
2016-11-23T07:43:08.054Z,955.79
2016-11-23T07:44:07.802Z,955.79
2016-11-23T07:45:08.420Z,955.77
2016-11-23T07:46:07.957Z,955.83
2016-11-23T07:47:07.626Z,955.89
2016-11-23T07:48:14.710Z,955.84
2016-11-23T07:49:08.263Z,955.91
2016-11-23T07:50:08.125Z,955.89
2016-11-23T07:51:07.911Z,955.88
2016-11-23T07:52:08.686Z,955.84
2016-11-23T07:53:08.221Z,955.87
2016-11-23T07:54:08.188Z,955.86
2016-11-23T07:55:07.684Z,955.88
2016-11-23T07:56:08.230Z,955.88
2016-11-23T07:57:07.740Z,955.91
2016-11-23T07:58:08.449Z,955.92
2016-11-23T07:59:08.012Z,955.93
2016-11-23T08:00:07.755Z,955.92
2016-11-23T08:01:08.281Z,955.92
2016-11-23T08:02:07.740Z,955.90
2016-11-23T08:03:08.295Z,955.88
2016-11-23T08:04:08.289Z,955.85
2016-11-23T08:05:07.852Z,955.83
2016-11-23T08:06:07.402Z,955.86
2016-11-23T08:07:08.871Z,955.88
2016-11-23T08:08:07.424Z,955.92
2016-11-23T08:09:08.070Z,955.89
2016-11-23T08:10:07.812Z,955.91
2016-11-23T08:11:07.318Z,955.95
2016-11-23T08:12:07.902Z,955.83
2016-11-23T08:13:07.488Z,955.87
2016-11-23T08:14:08.140Z,955.88
2016-11-23T08:15:07.629Z,955.87
2016-11-23T08:16:08.163Z,955.92
2016-11-23T08:17:08.123Z,955.91
2016-11-23T08:18:07.663Z,955.93
2016-11-23T08:19:08.252Z,955.92
2016-11-23T08:20:07.733Z,955.96
2016-11-23T08:21:08.264Z,955.95
2016-11-23T08:22:08.791Z,955.92
2016-11-23T08:23:07.616Z,955.94
2016-11-23T08:24:08.406Z,955.95
2016-11-23T08:25:07.949Z,955.94
2016-11-23T08:26:07.417Z,955.88
2016-11-23T08:27:07.885Z,955.90
2016-11-23T08:28:07.634Z,955.89
2016-11-23T08:29:08.573Z,955.89
2016-11-23T08:30:08.175Z,955.87
2016-11-23T08:31:09.045Z,955.88
2016-11-23T08:32:07.512Z,955.89
2016-11-23T08:33:08.090Z,955.85
2016-11-23T08:34:07.752Z,955.84
2016-11-23T08:35:08.354Z,955.79
2016-11-23T08:36:07.875Z,955.78
2016-11-23T08:37:07.433Z,955.76
2016-11-23T08:38:08.071Z,955.81
2016-11-23T08:39:07.609Z,955.77
2016-11-23T08:40:08.190Z,955.75
2016-11-23T08:41:07.325Z,955.76
2016-11-23T08:42:07.828Z,955.77
2016-11-23T08:43:07.444Z,955.76
2016-11-23T08:44:07.905Z,955.81
2016-11-23T08:45:07.539Z,955.81
2016-11-23T08:46:08.028Z,955.80
2016-11-23T08:47:07.698Z,955.82
2016-11-23T08:48:08.485Z,955.80
2016-11-23T08:49:08.219Z,955.79
2016-11-23T08:50:07.962Z,955.75
2016-11-23T08:51:07.452Z,955.75
2016-11-23T08:52:08.925Z,955.79
2016-11-23T08:53:07.505Z,955.76
2016-11-23T08:54:08.029Z,955.80
2016-11-23T08:55:07.586Z,955.81
2016-11-23T08:56:08.098Z,955.83
2016-11-23T08:57:07.590Z,955.82
2016-11-23T08:58:08.408Z,955.81
2016-11-23T08:59:07.979Z,955.78
2016-11-23T09:00:07.515Z,955.78
2016-11-23T09:01:07.725Z,955.78
2016-11-23T09:02:07.526Z,955.71
2016-11-23T09:03:08.147Z,955.77
2016-11-23T09:04:07.681Z,955.75
2016-11-23T09:05:08.157Z,955.73
2016-11-23T09:06:07.651Z,955.73
2016-11-23T09:07:09.241Z,955.68
2016-11-23T09:08:07.750Z,955.65
2016-11-23T09:09:08.339Z,955.67
2016-11-23T09:10:08.208Z,955.69
2016-11-23T09:11:07.775Z,955.66
2016-11-23T09:12:07.597Z,955.64
2016-11-23T09:13:08.088Z,955.64
2016-11-23T09:14:07.682Z,955.66
2016-11-23T09:15:08.279Z,955.68
2016-11-23T09:16:07.781Z,955.64
2016-11-23T09:17:07.538Z,955.68
2016-11-23T09:18:08.044Z,955.70
2016-11-23T09:19:07.587Z,955.73
2016-11-23T09:20:08.227Z,955.69
2016-11-23T09:21:08.075Z,955.72
2016-11-23T09:22:07.910Z,955.73
2016-11-23T09:23:07.457Z,955.74
2016-11-23T09:24:08.022Z,955.74
2016-11-23T09:25:07.762Z,955.80
2016-11-23T09:26:07.352Z,955.82
2016-11-23T09:27:14.512Z,955.82
2016-11-23T09:28:08.218Z,955.76
2016-11-23T09:29:07.700Z,955.80
2016-11-23T09:30:08.246Z,955.79
2016-11-23T09:31:07.776Z,955.78
2016-11-23T09:32:07.393Z,955.75
2016-11-23T09:33:07.930Z,955.80
2016-11-23T09:34:07.429Z,955.80
2016-11-23T09:35:07.957Z,955.79
2016-11-23T09:36:07.796Z,955.80
2016-11-23T09:37:07.830Z,955.75
2016-11-23T09:38:07.401Z,955.76
2016-11-23T09:39:07.986Z,955.70
2016-11-23T09:40:07.492Z,955.72
2016-11-23T09:41:08.051Z,955.69
2016-11-23T09:42:07.605Z,955.65
2016-11-23T09:43:08.121Z,955.63
2016-11-23T09:44:07.893Z,955.63
2016-11-23T09:45:07.421Z,955.62
2016-11-23T09:46:08.054Z,955.63
2016-11-23T09:47:07.654Z,955.64
2016-11-23T09:48:08.159Z,955.67
2016-11-23T09:49:07.647Z,955.66
2016-11-23T09:50:08.391Z,955.66
2016-11-23T09:51:07.916Z,955.63
2016-11-23T09:52:07.677Z,955.62
2016-11-23T09:53:08.181Z,955.68
2016-11-23T09:54:08.019Z,955.65
2016-11-23T09:55:07.511Z,955.68
2016-11-23T09:56:07.961Z,955.65
2016-11-23T09:57:08.033Z,955.64
2016-11-23T09:58:07.711Z,955.61
2016-11-23T09:59:08.402Z,955.64
2016-11-23T10:00:07.868Z,955.67
2016-11-23T10:01:08.065Z,955.67
2016-11-23T10:02:07.516Z,955.66
2016-11-23T10:03:08.084Z,955.60
2016-11-23T10:04:07.557Z,955.61
2016-11-23T10:05:08.101Z,955.56
2016-11-23T10:06:07.958Z,955.63
2016-11-23T10:07:07.871Z,955.61
2016-11-23T10:08:07.470Z,955.55
2016-11-23T10:09:08.230Z,955.54
2016-11-23T10:10:07.688Z,955.60
2016-11-23T10:11:08.330Z,955.54
2016-11-23T10:12:07.984Z,955.53
2016-11-23T10:13:07.512Z,955.54
2016-11-23T10:14:08.062Z,955.52
2016-11-23T10:15:07.633Z,955.51
2016-11-23T10:16:08.429Z,955.49
2016-11-23T10:17:08.084Z,955.49
2016-11-23T10:18:07.655Z,955.53
2016-11-23T10:19:08.273Z,955.48
2016-11-23T10:20:07.757Z,955.50
2016-11-23T10:21:08.334Z,955.53
2016-11-23T10:22:07.978Z,955.47
2016-11-23T10:23:07.541Z,955.48
2016-11-23T10:24:08.391Z,955.45
2016-11-23T10:25:07.901Z,955.47
2016-11-23T10:26:07.391Z,955.46
2016-11-23T10:27:08.009Z,955.45
2016-11-23T10:28:07.756Z,955.43
2016-11-23T10:29:07.316Z,955.44
2016-11-23T10:30:07.932Z,955.43
2016-11-23T10:31:07.409Z,955.45
2016-11-23T10:32:07.996Z,955.44
2016-11-23T10:33:07.510Z,955.46
2016-11-23T10:34:07.749Z,955.42
2016-11-23T10:35:07.768Z,955.42
2016-11-23T10:36:07.446Z,955.38
2016-11-23T10:37:08.731Z,955.37
2016-11-23T10:38:08.434Z,955.41
2016-11-23T10:39:07.990Z,955.42
2016-11-23T10:40:07.591Z,955.40
2016-11-23T10:41:07.560Z,955.40
2016-11-23T10:42:08.150Z,955.37
2016-11-23T10:43:07.799Z,955.38
2016-11-23T10:44:07.601Z,955.38
2016-11-23T10:45:08.069Z,955.37
2016-11-23T10:46:07.334Z,955.33
2016-11-23T10:47:07.926Z,955.33
2016-11-23T10:48:07.452Z,955.34
2016-11-23T10:49:23.023Z,955.34
2016-11-23T10:50:07.551Z,955.40
2016-11-23T10:51:08.078Z,955.32
2016-11-23T10:52:08.108Z,955.37
2016-11-23T10:53:07.671Z,955.38
2016-11-23T10:54:08.191Z,955.37
2016-11-23T10:55:07.720Z,955.40
2016-11-23T10:56:08.211Z,955.43
2016-11-23T10:57:07.682Z,955.37
2016-11-23T10:58:08.520Z,955.40
2016-11-23T10:59:08.037Z,955.40
2016-11-23T11:00:07.709Z,955.41
2016-11-23T11:01:08.230Z,955.42
2016-11-23T11:02:08.029Z,955.39
2016-11-23T11:03:07.664Z,955.40
2016-11-23T11:04:08.215Z,955.41
2016-11-23T11:05:07.828Z,955.40
2016-11-23T11:06:07.364Z,955.39
2016-11-23T11:07:08.732Z,955.38
2016-11-23T11:08:08.511Z,955.42
2016-11-23T11:09:08.434Z,955.33
2016-11-23T11:10:07.858Z,955.32
2016-11-23T11:11:08.101Z,955.32
2016-11-23T11:12:07.605Z,955.29
2016-11-23T11:13:08.069Z,955.29
2016-11-23T11:14:07.711Z,955.29
2016-11-23T11:15:08.264Z,955.25
2016-11-23T11:16:07.944Z,955.30
2016-11-23T11:17:07.727Z,955.21
2016-11-23T11:18:08.221Z,955.20
2016-11-23T11:19:07.879Z,955.22
2016-11-23T11:20:07.409Z,955.17
2016-11-23T11:21:08.115Z,955.12
2016-11-23T11:22:08.413Z,955.14
2016-11-23T11:23:08.101Z,955.05
2016-11-23T11:24:07.620Z,955.07
2016-11-23T11:25:08.304Z,955.07
2016-11-23T11:26:07.839Z,955.01
2016-11-23T11:27:07.489Z,955.02
2016-11-23T11:28:08.188Z,955.01
2016-11-23T11:29:07.878Z,955.03
2016-11-23T11:30:07.715Z,955.04
2016-11-23T11:31:08.279Z,955.01
2016-11-23T11:32:08.026Z,955.02
2016-11-23T11:33:07.662Z,954.99
2016-11-23T11:34:07.924Z,954.99
2016-11-23T11:35:07.448Z,955.01
2016-11-23T11:36:07.950Z,955.04
2016-11-23T11:37:08.026Z,955.03
2016-11-23T11:38:07.657Z,955.02
2016-11-23T11:39:08.228Z,955.05
2016-11-23T11:40:08.045Z,955.04
2016-11-23T11:41:07.598Z,955.04
2016-11-23T11:42:08.152Z,954.99
2016-11-23T11:43:07.644Z,955.01
2016-11-23T11:44:07.913Z,954.95
2016-11-23T11:45:07.516Z,954.96
2016-11-23T11:46:15.298Z,955.01
2016-11-23T11:47:08.174Z,954.95
2016-11-23T11:48:07.725Z,954.99
2016-11-23T11:49:08.384Z,954.95
2016-11-23T11:50:07.887Z,954.99
2016-11-23T11:51:07.470Z,954.98
2016-11-23T11:52:09.168Z,954.99
2016-11-23T11:53:07.696Z,954.94
2016-11-23T11:54:08.523Z,954.95
2016-11-23T11:55:08.081Z,954.95
2016-11-23T11:56:07.756Z,954.93
2016-11-23T11:57:07.618Z,954.96
2016-11-23T11:58:08.293Z,954.91
2016-11-23T11:59:07.822Z,954.94
2016-11-23T12:00:07.299Z,954.95
2016-11-23T12:01:07.825Z,954.98
2016-11-23T12:02:07.462Z,954.97
2016-11-23T12:03:07.950Z,954.95
2016-11-23T12:04:07.527Z,954.97
2016-11-23T12:05:08.085Z,954.96
2016-11-23T12:06:07.640Z,954.93
2016-11-23T12:07:08.172Z,954.99
2016-11-23T12:08:07.767Z,954.98
2016-11-23T12:09:07.336Z,954.98
2016-11-23T12:10:07.990Z,954.99
2016-11-23T12:11:07.498Z,955.00
2016-11-23T12:12:08.137Z,955.01
2016-11-23T12:13:07.721Z,955.00
2016-11-23T12:14:08.270Z,954.97
2016-11-23T12:15:07.818Z,954.99
2016-11-23T12:16:07.318Z,954.99
2016-11-23T12:17:08.088Z,955.04
2016-11-23T12:18:07.650Z,955.03
2016-11-23T12:19:08.214Z,955.05
2016-11-23T12:20:08.147Z,955.07
2016-11-23T12:21:07.605Z,955.03
2016-11-23T12:22:08.476Z,955.06
2016-11-23T12:23:08.007Z,955.07
2016-11-23T12:24:08.182Z,955.08
2016-11-23T12:25:07.619Z,955.03
2016-11-23T12:26:08.132Z,955.02
2016-11-23T12:27:07.772Z,955.02
2016-11-23T12:28:07.497Z,955.01